createdAt,value
2023-03-26T00:03:38.504Z,3.85
2023-03-26T00:08:46.198Z,4.02
2023-03-26T00:13:54.693Z,4.23
2023-03-26T00:18:59.393Z,4.45
2023-03-26T00:24:11.487Z,4.66
2023-03-26T00:29:16.748Z,4.89
2023-03-26T00:34:24.180Z,5.16
2023-03-26T00:39:30.429Z,5.45
2023-03-26T00:44:36.586Z,5.76
2023-03-26T00:49:41.786Z,5.99
2023-03-26T00:54:53.299Z,6.19
2023-03-26T00:59:59.403Z,6.33
2023-03-26T01:05:36.602Z,6.52
2023-03-26T01:10:42.197Z,6.77
2023-03-26T01:15:52.545Z,7.07
2023-03-26T01:21:06.575Z,7.38
2023-03-26T01:26:41.085Z,7.72
2023-03-26T01:31:59.205Z,7.87
2023-03-26T01:37:25.456Z,8.15
2023-03-26T01:42:53.780Z,8.50
2023-03-26T01:47:59.055Z,8.82
2023-03-26T01:53:04.096Z,9.09
2023-03-26T01:58:40.348Z,9.34
2023-03-26T02:03:56.986Z,9.48
2023-03-26T02:09:08.271Z,9.67
2023-03-26T02:14:15.373Z,9.97
2023-03-26T02:19:23.813Z,10.13
2023-03-26T02:24:28.516Z,10.41
2023-03-26T02:29:41.251Z,10.64
2023-03-26T02:34:48.684Z,10.91
2023-03-26T02:39:53.089Z,11.19
2023-03-26T02:45:05.981Z,11.48
2023-03-26T02:50:33.677Z,11.74
2023-03-26T02:56:01.939Z,12.04
2023-03-26T03:01:14.901Z,12.30
2023-03-26T03:06:32.315Z,12.41
2023-03-26T03:11:38.215Z,12.55
2023-03-26T03:16:43.439Z,12.66
2023-03-26T03:21:49.110Z,12.78
2023-03-26T03:26:56.323Z,12.99
2023-03-26T03:32:24.815Z,13.26
2023-03-26T03:37:34.469Z,13.61
2023-03-26T03:42:40.042Z,13.91
2023-03-26T03:47:46.623Z,14.33
2023-03-26T03:52:55.292Z,14.66
2023-03-26T03:58:00.454Z,14.85
2023-03-26T04:03:07.786Z,14.84
2023-03-26T04:08:12.039Z,14.96
2023-03-26T04:13:26.853Z,15.07
2023-03-26T04:19:03.504Z,15.24
2023-03-26T04:24:09.030Z,15.58
2023-03-26T04:29:46.148Z,15.71
2023-03-26T04:35:01.715Z,15.85
2023-03-26T04:40:14.388Z,15.83
2023-03-26T04:45:49.129Z,16.02
2023-03-26T04:50:56.218Z,16.30
2023-03-26T04:56:23.426Z,16.42
2023-03-26T05:02:01.345Z,16.14
2023-03-26T05:07:13.535Z,16.17
2023-03-26T05:12:23.122Z,16.15
2023-03-26T05:17:36.069Z,16.18
2023-03-26T05:22:41.449Z,16.28
2023-03-26T05:28:06.205Z,16.23
2023-03-26T05:33:19.091Z,16.23
2023-03-26T05:38:31.911Z,16.35
2023-03-26T05:43:38.549Z,16.51
2023-03-26T05:48:56.506Z,16.63
2023-03-26T05:54:02.219Z,16.73
2023-03-26T05:59:08.084Z,16.86
2023-03-26T06:04:33.070Z,16.94
2023-03-26T06:09:56.326Z,17.00
2023-03-26T06:15:01.012Z,17.11
2023-03-26T06:20:21.782Z,17.16
2023-03-26T06:25:28.958Z,17.19
2023-03-26T06:30:54.152Z,17.29
2023-03-26T06:36:20.425Z,17.38
2023-03-26T06:41:27.364Z,17.52
2023-03-26T06:46:40.904Z,17.61
2023-03-26T06:52:05.020Z,17.66
2023-03-26T06:57:23.976Z,17.76
2023-03-26T07:02:47.838Z,17.75
2023-03-26T07:08:11.693Z,17.87
2023-03-26T07:13:35.476Z,17.89
2023-03-26T07:19:10.265Z,17.97
2023-03-26T07:24:18.032Z,18.04
2023-03-26T07:30:04.854Z,18.15
2023-03-26T07:35:52.876Z,18.16
2023-03-26T07:41:33.371Z,18.24
2023-03-26T07:46:59.664Z,18.27
2023-03-26T07:52:23.896Z,18.26
2023-03-26T07:57:59.984Z,18.32
2023-03-26T08:03:52.425Z,18.39
2023-03-26T08:09:27.067Z,18.37
2023-03-26T08:15:35.150Z,17.94
2023-03-26T08:20:49.118Z,17.67
2023-03-26T08:26:00.623Z,17.65
2023-03-26T08:31:06.591Z,17.69
2023-03-26T08:36:12.278Z,17.74
2023-03-26T08:41:37.123Z,17.69
2023-03-26T08:47:06.596Z,17.62
2023-03-26T08:52:18.131Z,17.50
2023-03-26T08:57:41.974Z,17.32
2023-03-26T09:03:22.222Z,17.10
2023-03-26T09:08:33.225Z,16.94
2023-03-26T09:14:06.743Z,16.79
2023-03-26T09:19:27.692Z,16.68
2023-03-26T09:25:03.659Z,16.50
2023-03-26T09:30:33.695Z,16.34
2023-03-26T09:35:41.743Z,16.15
2023-03-26T09:41:00.622Z,15.99
2023-03-26T09:46:18.214Z,15.81
2023-03-26T09:52:09.641Z,15.61
2023-03-26T09:57:59.588Z,15.48
2023-03-26T10:03:13.733Z,15.37
2023-03-26T10:09:04.058Z,15.25
2023-03-26T10:14:15.433Z,15.11
2023-03-26T10:19:42.074Z,14.99
2023-03-26T10:24:57.117Z,14.84
2023-03-26T10:30:21.902Z,14.68
2023-03-26T10:35:52.198Z,14.51
2023-03-26T10:41:22.397Z,14.35
2023-03-26T10:46:42.497Z,14.21
2023-03-26T10:52:03.166Z,14.12
2023-03-26T10:57:43.239Z,14.01
2023-03-26T11:03:32.846Z,13.96
2023-03-26T11:09:01.738Z,13.88
2023-03-26T11:14:43.875Z,13.79
2023-03-26T11:19:54.336Z,13.69
2023-03-26T11:25:44.223Z,13.59
2023-03-26T11:31:04.358Z,13.46
2023-03-26T11:36:15.594Z,13.34
2023-03-26T11:41:24.175Z,13.20
2023-03-26T11:46:48.928Z,13.11
2023-03-26T11:51:54.759Z,12.97
2023-03-26T11:57:07.174Z,12.87
2023-03-26T12:02:12.922Z,12.77
2023-03-26T12:07:23.262Z,12.48
2023-03-26T12:12:40.094Z,12.23
2023-03-26T12:17:46.280Z,11.85
2023-03-26T12:23:01.243Z,11.51
2023-03-26T12:28:19.350Z,11.26
2023-03-26T12:33:29.517Z,11.05
2023-03-26T12:38:35.954Z,10.97
2023-03-26T12:44:49.205Z,10.88
2023-03-26T12:49:14.574Z,10.77
2023-03-26T12:54:45.303Z,10.82
2023-03-26T13:00:13.153Z,10.89
2023-03-26T13:05:39.381Z,10.95
2023-03-26T13:10:51.193Z,10.99
2023-03-26T13:16:06.851Z,11.04
2023-03-26T13:21:22.094Z,10.95
2023-03-26T13:27:08.045Z,10.86
2023-03-26T13:32:52.324Z,10.70
2023-03-26T13:38:05.839Z,10.50
2023-03-26T13:43:36.540Z,10.33
2023-03-26T13:48:56.508Z,10.23
2023-03-26T13:54:24.763Z,10.16
2023-03-26T14:00:03.352Z,10.11
2023-03-26T14:05:27.569Z,10.06
2023-03-26T14:10:42.990Z,10.00
2023-03-26T14:16:08.248Z,9.97
2023-03-26T14:21:13.455Z,9.92
2023-03-26T14:26:39.538Z,9.89
2023-03-26T14:32:12.772Z,9.84
2023-03-26T14:37:52.557Z,9.67
2023-03-26T14:43:35.193Z,9.45
2023-03-26T14:48:59.770Z,9.30
2023-03-26T14:54:16.032Z,9.29
2023-03-26T14:59:37.232Z,9.31
2023-03-26T15:05:04.260Z,9.34
2023-03-26T15:10:40.050Z,9.24
2023-03-26T15:15:59.358Z,9.16
2023-03-26T15:21:26.985Z,9.09
2023-03-26T15:26:49.205Z,9.06
2023-03-26T15:32:16.204Z,9.02
2023-03-26T15:37:55.468Z,8.81
2023-03-26T15:43:04.141Z,8.61
2023-03-26T15:48:15.570Z,8.44
2023-03-26T15:53:49.947Z,8.42
2023-03-26T15:59:19.009Z,8.41
2023-03-26T16:04:39.872Z,8.44
2023-03-26T16:10:17.736Z,8.46
2023-03-26T16:15:26.581Z,8.48
2023-03-26T16:20:37.058Z,8.50
2023-03-26T16:26:03.078Z,8.45
2023-03-26T16:31:37.857Z,8.45
2023-03-26T16:36:47.362Z,8.42
2023-03-26T16:42:06.057Z,8.26
2023-03-26T16:47:27.724Z,8.05
2023-03-26T16:52:46.839Z,7.85
2023-03-26T16:57:57.897Z,7.80
2023-03-26T17:03:20.293Z,7.81
2023-03-26T17:08:59.992Z,7.85
2023-03-26T17:14:42.719Z,7.79
2023-03-26T17:20:10.693Z,7.72
2023-03-26T17:25:38.248Z,7.66
2023-03-26T17:31:20.437Z,7.58
2023-03-26T17:36:33.640Z,7.48
2023-03-26T17:41:58.013Z,7.38
2023-03-26T17:47:04.534Z,7.18
2023-03-26T17:52:28.042Z,7.05
2023-03-26T17:57:49.418Z,6.94
2023-03-26T18:03:02.868Z,6.98
2023-03-26T18:08:43.434Z,6.98
2023-03-26T18:14:15.406Z,6.96
2023-03-26T18:19:24.808Z,6.91
2023-03-26T18:24:42.442Z,6.87
2023-03-26T18:30:02.845Z,6.73
2023-03-26T18:35:23.432Z,6.57
2023-03-26T18:40:41.903Z,6.48
2023-03-26T18:45:51.994Z,6.28
2023-03-26T18:51:05.810Z,6.15
2023-03-26T18:56:44.851Z,6.01
2023-03-26T19:01:51.986Z,5.92
2023-03-26T19:06:58.555Z,5.82
2023-03-26T19:12:31.326Z,5.81
2023-03-26T19:17:52.769Z,5.76
2023-03-26T19:22:59.170Z,5.58
2023-03-26T19:28:04.862Z,5.49
2023-03-26T19:33:19.869Z,5.53
2023-03-26T19:38:28.365Z,5.56
2023-03-26T19:43:33.791Z,5.58
2023-03-26T19:48:45.811Z,5.54
2023-03-26T19:54:02.036Z,5.46
2023-03-26T19:59:07.195Z,5.37
2023-03-26T20:04:14.850Z,5.29
2023-03-26T20:09:20.640Z,5.34
2023-03-26T20:14:27.590Z,5.42
2023-03-26T20:19:32.864Z,5.62
2023-03-26T20:24:37.970Z,6.04
2023-03-26T20:29:44.417Z,6.71
2023-03-26T20:34:51.148Z,7.18
2023-03-26T20:39:56.552Z,7.50
2023-03-26T20:45:01.867Z,7.73
2023-03-26T20:50:08.346Z,7.86
2023-03-26T20:55:17.053Z,7.96
2023-03-26T21:00:25.745Z,8.04
2023-03-26T21:05:32.096Z,8.07
2023-03-26T21:10:37.396Z,8.06
2023-03-26T21:15:44.333Z,8.07
2023-03-26T21:21:21.134Z,8.09
2023-03-26T21:26:44.984Z,8.08
2023-03-26T21:31:52.806Z,8.11
2023-03-26T21:36:59.829Z,8.19
2023-03-26T21:42:06.029Z,8.24
2023-03-26T21:47:11.829Z,8.26
2023-03-26T21:52:17.076Z,8.31
2023-03-26T21:57:35.129Z,8.31
2023-03-26T22:02:52.772Z,8.29
2023-03-26T22:08:08.320Z,8.25
2023-03-26T22:13:13.677Z,8.30
2023-03-26T22:18:23.524Z,8.28
2023-03-26T22:23:35.530Z,8.26
2023-03-26T22:28:40.902Z,8.37
2023-03-26T22:33:47.516Z,8.42
2023-03-26T22:38:55.101Z,8.45
2023-03-26T22:44:12.798Z,8.49
2023-03-26T22:49:25.687Z,8.69
2023-03-26T22:54:31.110Z,8.81
2023-03-26T22:59:36.363Z,8.89
2023-03-26T23:04:44.006Z,8.95
2023-03-26T23:09:49.145Z,9.06
2023-03-26T23:14:55.113Z,9.14
2023-03-26T23:20:01.998Z,9.26
2023-03-26T23:25:07.683Z,9.42
2023-03-26T23:30:14.634Z,9.59
2023-03-26T23:35:19.780Z,9.70
2023-03-26T23:40:24.926Z,9.87
2023-03-26T23:45:30.315Z,10.01
2023-03-26T23:50:39.108Z,10.17
2023-03-26T23:55:48.506Z,10.30
